Time;durP1;ratioP1;P1;durP2;ratioP2;P2;SDS_P1;SDS_P2;PMS_P1;PMS_P2;Temp;Humidity;BMP_temperature;BMP_pressure;BME280_temperature;BME280_humidity;BME280_pressure;Samples;Min_cycle;Max_cycle;Signal;HPM_P1;HPM_P2
2023/01/10 00:01:31;;;;;;;33.75;8.40;;;7.50;99.90;;;;;;5052182;28;20477;-65
2023/01/10 00:03:57;;;;;;;25.80;7.18;;;7.60;99.90;;;;;;5051977;28;20033;-65
2023/01/10 00:06:22;;;;;;;28.33;7.00;;;7.60;99.90;;;;;;5052136;28;20029;-65
2023/01/10 00:08:48;;;;;;;29.30;6.72;;;7.70;99.90;;;;;;5052338;28;20474;-65
2023/01/10 00:13:58;;;;;;;26.90;8.10;;;7.50;99.90;;;;;;5052144;28;20032;-65
2023/01/10 00:16:24;;;;;;;27.23;7.50;;;7.50;99.90;;;;;;5051982;28;20021;-66
2023/01/10 00:18:49;;;;;;;45.28;32.88;;;7.50;99.90;;;;;;5052537;28;20036;-65
2023/01/10 00:21:15;;;;;;;34.58;14.48;;;7.50;99.90;;;;;;5052008;28;20014;-65
2023/01/10 00:23:43;;;;;;;34.13;14.93;;;7.50;99.90;;;;;;5051884;28;20037;-65
2023/01/10 00:26:09;;;;;;;28.52;12.85;;;7.50;99.90;;;;;;5051724;28;20017;-66
2023/01/10 00:28:38;;;;;;;33.03;6.93;;;7.50;99.90;;;;;;5051677;28;20480;-65
2023/01/10 00:31:07;;;;;;;27.27;7.28;;;7.60;99.90;;;;;;5052133;28;20405;-66
2023/01/10 00:33:36;;;;;;;32.67;7.10;;;7.50;99.90;;;;;;5052072;28;20099;-65
2023/01/10 00:36:05;;;;;;;29.08;6.68;;;7.50;99.90;;;;;;5051850;28;20444;-65
2023/01/10 00:38:35;;;;;;;32.20;7.25;;;7.40;99.90;;;;;;5051735;28;20056;-65
2023/01/10 00:41:02;;;;;;;28.10;7.47;;;7.40;99.90;;;;;;5051543;28;20025;-65
2023/01/10 00:46:12;;;;;;;29.30;7.47;;;7.40;99.90;;;;;;5051824;28;20040;-65
2023/01/10 00:48:38;;;;;;;27.42;7.30;;;7.50;99.90;;;;;;5051982;28;20021;-64
2023/01/10 00:51:04;;;;;;;32.15;7.68;;;7.60;99.90;;;;;;5051777;28;20546;-65
2023/01/10 00:53:30;;;;;;;30.45;6.68;;;7.60;99.90;;;;;;5051752;28;20060;-65
2023/01/10 00:55:56;;;;;;;24.35;6.38;;;7.50;99.90;;;;;;5051788;28;20441;-65
2023/01/10 00:58:22;;;;;;;29.05;6.45;;;7.50;99.90;;;;;;5051892;28;20092;-65
2023/01/10 01:00:48;;;;;;;22.50;5.97;;;7.60;99.90;;;;;;5051880;28;20103;-64
2023/01/10 01:03:15;;;;;;;31.27;7.10;;;7.50;99.90;;;;;;5051645;28;20031;-64
2023/01/10 01:05:42;;;;;;;31.42;6.88;;;7.40;99.90;;;;;;5051662;28;20036;-65
2023/01/10 01:08:12;;;;;;;31.80;7.25;;;7.30;99.90;;;;;;5051912;28;20442;-65
2023/01/10 01:10:37;;;;;;;27.23;7.05;;;7.30;99.90;;;;;;5051196;28;20040;-64
2023/01/10 01:13:16;;;;;;;27.67;6.60;;;7.30;99.90;;;;;;5051727;28;20029;-64
2023/01/10 01:15:42;;;;;;;30.02;7.50;;;7.20;99.90;;;;;;5055737;28;20021;-65
2023/01/10 01:18:11;;;;;;;30.42;6.55;;;7.20;99.90;;;;;;5055063;28;20440;-65
2023/01/10 01:20:39;;;;;;;23.80;6.15;;;7.10;99.90;;;;;;5055635;28;20138;-65
2023/01/10 01:23:04;;;;;;;26.17;7.22;;;6.90;99.90;;;;;;5054686;28;20057;-64
2023/01/10 01:25:30;;;;;;;25.23;6.20;;;6.80;99.90;;;;;;5055272;28;20052;-65
2023/01/10 01:27:56;;;;;;;32.33;7.07;;;6.70;99.90;;;;;;5054695;28;20045;-65
2023/01/10 01:30:21;;;;;;;29.90;8.05;;;6.70;99.90;;;;;;5054980;28;20541;-65
2023/01/10 01:32:47;;;;;;;29.17;7.18;;;6.90;99.90;;;;;;5055097;28;20045;-65
2023/01/10 01:35:14;;;;;;;28.50;6.72;;;6.90;99.90;;;;;;5053690;28;20024;-65
2023/01/10 01:37:41;;;;;;;29.38;7.50;;;6.90;99.90;;;;;;5054567;28;20604;-65
2023/01/10 01:40:14;;;;;;;30.38;6.97;;;6.90;99.90;;;;;;5054917;28;20120;-65
2023/01/10 01:42:41;;;;;;;28.88;6.90;;;6.80;99.90;;;;;;5054873;28;20021;-65
2023/01/10 01:45:21;;;;;;;25.30;6.63;;;6.80;99.90;;;;;;5055131;28;20037;-65
2023/01/10 01:47:56;;;;;;;25.85;6.63;;;6.90;99.90;;;;;;5054851;28;20025;-65
2023/01/10 01:51:06;;;;;;;31.40;6.65;;;6.90;99.90;;;;;;5054664;28;20025;-65
2023/01/10 01:53:49;;;;;;;28.65;6.70;;;6.90;99.90;;;;;;5052044;28;20102;-65
2023/01/10 01:56:45;;;;;;;29.50;7.03;;;7.00;99.90;;;;;;5054628;28;20317;-65
2023/01/10 01:59:16;;;;;;;29.00;7.70;;;7.10;99.90;;;;;;5054614;28;20379;-65
2023/01/10 02:01:44;;;;;;;38.53;9.23;;;7.10;99.90;;;;;;5054678;28;20363;-65
2023/01/10 02:04:15;;;;;;;30.90;8.60;;;7.10;99.90;;;;;;5054396;28;20547;-65
2023/01/10 02:06:41;;;;;;;29.30;7.80;;;7.10;99.90;;;;;;5053919;28;20054;-65
2023/01/10 02:09:45;;;;;;;32.58;7.78;;;7.00;99.90;;;;;;5053084;28;20379;-65
2023/01/10 02:12:13;;;;;;;30.17;7.22;;;7.10;99.90;;;;;;5054284;28;20033;-65
2023/01/10 02:14:41;;;;;;;25.20;7.28;;;7.00;99.90;;;;;;5054574;28;20020;-65
2023/01/10 02:17:09;;;;;;;27.15;6.68;;;6.90;99.90;;;;;;5054151;28;20037;-65
2023/01/10 02:20:07;;;;;;;28.05;6.22;;;6.90;99.90;;;;;;5054116;28;20098;-65
2023/01/10 02:23:03;;;;;;;27.55;6.28;;;7.00;99.90;;;;;;5031674;28;20493;-65
2023/01/10 02:26:02;;;;;;;25.35;6.93;;;6.90;99.90;;;;;;5031822;28;20045;-65
2023/01/10 02:29:07;;;;;;;27.02;6.70;;;7.00;99.90;;;;;;5032049;28;20445;-65
2023/01/10 02:31:57;;;;;;;31.55;8.40;;;7.10;99.90;;;;;;4976866;28;20085;-65
2023/01/10 02:34:55;;;;;;;30.42;7.18;;;7.00;99.90;;;;;;4957935;28;20046;-65
2023/01/10 02:37:55;;;;;;;29.38;7.55;;;7.00;99.90;;;;;;4953360;29;20101;-65
2023/01/10 02:40:33;;;;;;;30.90;7.20;;;7.00;99.90;;;;;;4953576;29;20563;-65
2023/01/10 02:43:18;;;;;;;27.52;7.05;;;7.10;99.90;;;;;;4953977;29;20539;-65
2023/01/10 02:45:53;;;;;;;27.95;7.75;;;7.10;99.90;;;;;;4953929;29;20031;-65
2023/01/10 02:48:20;;;;;;;32.78;8.55;;;7.10;99.90;;;;;;4953254;28;20424;-65
2023/01/10 02:50:54;;;;;;;28.58;9.32;;;7.10;99.90;;;;;;4952934;29;20042;-65
2023/01/10 02:53:28;;;;;;;30.40;7.63;;;7.20;99.90;;;;;;4953370;29;20507;-65
2023/01/10 02:55:53;;;;;;;24.92;5.95;;;7.30;99.90;;;;;;4953282;29;20035;-65
2023/01/10 02:58:27;;;;;;;32.35;6.32;;;7.40;99.90;;;;;;4964127;28;20047;-65
2023/01/10 03:01:26;;;;;;;25.13;6.03;;;7.30;99.90;;;;;;4972597;28;20500;-65
2023/01/10 03:04:07;;;;;;;31.73;6.45;;;7.40;99.90;;;;;;4972279;28;20043;-65
2023/01/10 03:07:07;;;;;;;22.40;5.30;;;7.30;99.90;;;;;;4972442;28;20027;-65
2023/01/10 03:09:57;;;;;;;24.42;5.45;;;7.20;99.90;;;;;;5025575;28;20037;-65
2023/01/10 03:12:36;;;;;;;23.15;5.97;;;7.20;99.90;;;;;;5033041;28;20034;-65
2023/01/10 03:15:04;;;;;;;27.77;6.18;;;7.20;99.90;;;;;;5033250;28;20030;-65
2023/01/10 03:17:30;;;;;;;25.02;5.72;;;7.20;99.90;;;;;;5033101;28;20060;-65
2023/01/10 03:20:01;;;;;;;24.23;6.38;;;7.20;99.90;;;;;;5032765;28;20076;-65
2023/01/10 03:22:29;;;;;;;27.67;6.00;;;7.20;99.90;;;;;;5033216;28;20053;-65
2023/01/10 03:24:58;;;;;;;24.83;5.55;;;7.20;99.90;;;;;;5033350;28;20056;-65
2023/01/10 03:27:44;;;;;;;27.20;5.85;;;7.10;99.90;;;;;;5032916;28;20032;-64
2023/01/10 03:30:29;;;;;;;29.50;5.85;;;7.20;99.90;;;;;;5032907;28;20040;-65
2023/01/10 03:32:58;;;;;;;26.92;6.40;;;7.20;99.90;;;;;;5047772;28;20196;-64
2023/01/10 03:35:46;;;;;;;31.02;5.57;;;7.30;99.90;;;;;;5052456;28;20025;-64
2023/01/10 03:38:35;;;;;;;24.27;5.80;;;7.30;99.90;;;;;;5051973;28;20024;-64
2023/01/10 03:41:21;;;;;;;32.40;6.25;;;7.30;99.90;;;;;;5053101;28;20048;-64
2023/01/10 03:47:09;;;;;;;28.27;5.82;;;7.40;99.90;;;;;;5052756;28;20434;-64
2023/01/10 03:49:39;;;;;;;30.75;5.72;;;7.40;99.90;;;;;;5052265;28;20393;-64
2023/01/10 03:52:08;;;;;;;26.08;5.78;;;7.50;99.90;;;;;;5052318;28;20041;-65
2023/01/10 03:54:34;;;;;;;31.45;6.22;;;7.50;99.90;;;;;;5052209;28;20028;-64
2023/01/10 03:57:00;;;;;;;29.17;5.93;;;7.50;99.90;;;;;;5052337;28;20029;-65
2023/01/10 03:59:27;;;;;;;24.65;5.70;;;7.40;99.90;;;;;;5052728;28;20382;-65
2023/01/10 04:01:53;;;;;;;26.52;6.15;;;7.40;99.90;;;;;;5052134;28;20079;-64
2023/01/10 04:04:20;;;;;;;28.05;6.07;;;7.40;99.90;;;;;;5051928;28;20078;-65
2023/01/10 04:06:45;;;;;;;30.85;5.82;;;7.40;99.90;;;;;;5052177;28;20044;-65
2023/01/10 04:09:11;;;;;;;31.20;6.38;;;7.50;99.90;;;;;;5052242;28;20437;-65
2023/01/10 04:11:37;;;;;;;26.95;6.38;;;7.50;99.90;;;;;;5052101;28;20053;-65
2023/01/10 04:14:03;;;;;;;27.45;5.93;;;7.50;99.90;;;;;;5052070;28;20025;-64
2023/01/10 04:16:29;;;;;;;30.80;6.07;;;7.60;99.90;;;;;;5052022;28;20028;-65
2023/01/10 04:18:54;;;;;;;29.77;5.85;;;7.60;99.90;;;;;;5052068;28;20021;-65
2023/01/10 04:21:20;;;;;;;29.50;6.28;;;7.60;99.90;;;;;;5052052;28;20397;-64
2023/01/10 04:23:46;;;;;;;29.55;6.20;;;7.60;99.90;;;;;;5051943;28;20112;-65
2023/01/10 04:26:12;;;;;;;27.77;5.78;;;7.60;99.90;;;;;;5051999;28;20048;-65
2023/01/10 04:28:38;;;;;;;23.77;6.00;;;7.60;99.90;;;;;;5051876;28;20505;-64
2023/01/10 04:31:04;;;;;;;42.75;26.00;;;7.60;99.90;;;;;;5051855;28;20040;-65
2023/01/10 04:33:29;;;;;;;23.95;6.57;;;7.60;99.90;;;;;;5040602;28;20397;-65
2023/01/10 04:35:55;;;;;;;34.38;6.65;;;7.60;99.90;;;;;;5052089;28;20033;-65
2023/01/10 04:38:21;;;;;;;28.15;5.95;;;7.70;99.90;;;;;;5052050;28;20466;-65
2023/01/10 04:40:55;;;;;;;34.17;6.07;;;7.70;99.90;;;;;;5051877;28;20493;-65
2023/01/10 04:43:22;;;;;;;29.27;5.75;;;7.70;99.90;;;;;;5051529;28;20500;-67
2023/01/10 04:45:47;;;;;;;26.75;5.70;;;7.70;99.90;;;;;;5051618;28;20017;-65
2023/01/10 04:48:13;;;;;;;30.95;6.45;;;7.60;99.90;;;;;;5052478;28;20155;-65
2023/01/10 04:50:39;;;;;;;23.83;5.43;;;7.70;99.90;;;;;;5055804;28;20051;-65
2023/01/10 04:53:05;;;;;;;28.73;5.93;;;7.70;99.90;;;;;;5055766;28;20060;-64
2023/01/10 04:55:31;;;;;;;29.02;5.72;;;7.80;99.90;;;;;;5056193;28;20024;-65
2023/01/10 04:57:58;;;;;;;29.98;5.93;;;7.80;99.90;;;;;;5055704;28;20102;-65
2023/01/10 05:00:23;;;;;;;28.98;5.68;;;7.80;99.90;;;;;;5055134;28;20057;-65
2023/01/10 05:02:54;;;;;;;27.42;5.65;;;7.90;99.90;;;;;;5055719;28;20094;-64
2023/01/10 05:05:20;;;;;;;26.77;6.00;;;7.90;99.90;;;;;;5055538;28;20028;-64
2023/01/10 05:07:46;;;;;;;32.50;5.88;;;7.90;99.90;;;;;;5055555;28;20025;-65
2023/01/10 05:10:12;;;;;;;28.50;6.10;;;7.90;99.90;;;;;;5055424;28;20533;-64
2023/01/10 05:12:38;;;;;;;28.70;6.50;;;8.00;99.90;;;;;;5055360;28;20033;-65
2023/01/10 05:15:04;;;;;;;34.35;6.57;;;8.00;99.90;;;;;;5054933;28;20029;-64
2023/01/10 05:17:29;;;;;;;24.60;5.45;;;8.00;99.90;;;;;;5055452;28;20021;-65
2023/01/10 05:19:55;;;;;;;27.77;6.45;;;8.00;99.90;;;;;;5055262;28;20036;-64
2023/01/10 05:22:21;;;;;;;30.92;5.90;;;8.00;99.90;;;;;;5055156;28;20071;-65
2023/01/10 05:24:47;;;;;;;27.65;6.10;;;8.00;99.90;;;;;;5055634;28;20045;-65
2023/01/10 05:27:12;;;;;;;28.77;5.75;;;8.00;99.90;;;;;;5055338;28;20496;-65
2023/01/10 05:29:38;;;;;;;30.38;6.50;;;8.10;99.90;;;;;;5054479;28;20056;-65
2023/01/10 05:32:04;;;;;;;31.40;6.35;;;8.00;99.90;;;;;;5054787;28;20067;-65
2023/01/10 05:34:29;;;;;;;32.28;6.10;;;8.00;99.90;;;;;;5054886;28;20036;-65
2023/01/10 05:36:55;;;;;;;28.15;5.53;;;8.10;99.90;;;;;;5054988;28;20021;-65
2023/01/10 05:39:21;;;;;;;30.23;5.78;;;8.10;99.90;;;;;;5055351;28;20021;-64
2023/01/10 05:41:46;;;;;;;26.67;6.18;;;8.00;99.90;;;;;;5054957;28;20032;-64
2023/01/10 05:44:12;;;;;;;30.02;6.93;;;8.10;99.90;;;;;;5054419;28;20351;-65
2023/01/10 05:46:38;;;;;;;33.15;6.35;;;8.10;99.90;;;;;;5055186;28;20152;-65
2023/01/10 05:49:03;;;;;;;27.92;6.30;;;8.10;99.90;;;;;;5054728;28;20184;-64
2023/01/10 05:51:30;;;;;;;32.03;7.35;;;8.10;99.90;;;;;;5054559;28;20044;-65
2023/01/10 05:53:57;;;;;;;30.45;6.90;;;8.00;99.90;;;;;;5053202;28;20021;-64
2023/01/10 05:56:23;;;;;;;27.98;6.40;;;8.10;99.90;;;;;;5054603;28;20037;-65
2023/01/10 05:58:49;;;;;;;35.60;7.15;;;8.10;99.90;;;;;;5054562;28;20029;-65
2023/01/10 06:01:15;;;;;;;34.92;7.78;;;8.10;99.90;;;;;;5053517;28;20021;-65
2023/01/10 06:03:41;;;;;;;30.90;6.53;;;8.20;99.90;;;;;;5054486;28;20499;-65
2023/01/10 06:06:07;;;;;;;32.60;6.80;;;8.20;99.90;;;;;;5054419;28;20021;-64
2023/01/10 06:08:33;;;;;;;40.08;7.55;;;8.20;99.90;;;;;;5054400;28;20390;-64
2023/01/10 06:10:59;;;;;;;34.30;7.00;;;8.20;99.90;;;;;;5054748;28;20021;-64
2023/01/10 06:13:24;;;;;;;37.22;7.53;;;8.30;99.90;;;;;;5053900;28;20035;-65
2023/01/10 06:15:50;;;;;;;44.05;8.23;;;8.30;99.90;;;;;;5054315;28;20095;-65
2023/01/10 06:18:16;;;;;;;36.75;7.72;;;8.40;99.90;;;;;;5054600;28;20025;-65
2023/01/10 06:20:42;;;;;;;36.20;8.02;;;8.40;99.90;;;;;;5052898;28;20071;-65
2023/01/10 06:23:08;;;;;;;37.72;8.23;;;8.40;99.90;;;;;;5054183;28;20025;-65
2023/01/10 06:25:39;;;;;;;36.22;8.35;;;8.50;99.90;;;;;;5054186;28;20539;-65
2023/01/10 06:28:09;;;;;;;40.97;9.02;;;8.50;99.90;;;;;;5053372;28;20092;-65
2023/01/10 06:30:34;;;;;;;46.90;8.73;;;8.50;99.90;;;;;;5052822;28;20040;-65
2023/01/10 06:33:05;;;;;;;42.97;8.65;;;8.50;99.90;;;;;;5053834;28;20413;-65
2023/01/10 06:35:31;;;;;;;41.80;9.15;;;8.50;99.90;;;;;;5054083;28;20448;-66
2023/01/10 06:37:57;;;;;;;44.55;9.70;;;8.60;99.90;;;;;;5053796;28;20032;-65
2023/01/10 06:40:24;;;;;;;41.63;9.50;;;8.60;99.90;;;;;;5053801;28;20021;-65
2023/01/10 06:42:50;;;;;;;47.22;11.45;;;8.60;99.90;;;;;;5053150;28;20485;-65
2023/01/10 06:45:16;;;;;;;40.72;11.07;;;8.60;99.90;;;;;;5053626;28;20072;-65
2023/01/10 06:47:41;;;;;;;40.20;9.55;;;8.70;99.90;;;;;;5054054;28;20021;-65
2023/01/10 06:50:08;;;;;;;37.28;9.73;;;8.80;99.90;;;;;;5052336;28;20025;-65
2023/01/10 06:52:33;;;;;;;38.58;10.13;;;8.80;99.90;;;;;;5053505;28;20041;-65
2023/01/10 06:54:59;;;;;;;43.53;10.65;;;8.80;99.90;;;;;;5053476;28;20079;-65
2023/01/10 06:57:27;;;;;;;48.45;10.48;;;8.80;99.90;;;;;;5053235;28;20032;-65
2023/01/10 06:59:53;;;;;;;38.95;9.43;;;8.80;99.90;;;;;;5053663;28;20037;-65
2023/01/10 07:02:18;;;;;;;44.80;10.30;;;8.70;99.90;;;;;;5053470;28;20059;-65
2023/01/10 07:04:44;;;;;;;44.40;10.82;;;8.70;99.90;;;;;;5053323;28;20041;-67
2023/01/10 07:07:10;;;;;;;51.25;10.68;;;8.80;99.90;;;;;;5053596;28;20029;-65
2023/01/10 07:09:35;;;;;;;44.67;10.50;;;8.80;99.90;;;;;;5053059;28;20366;-65
2023/01/10 07:12:01;;;;;;;42.42;11.02;;;8.80;99.90;;;;;;5052643;28;20131;-65
2023/01/10 07:14:27;;;;;;;41.30;10.52;;;8.90;99.90;;;;;;5053111;28;20032;-65
2023/01/10 07:16:52;;;;;;;40.40;9.70;;;8.90;99.90;;;;;;5053559;28;20036;-65
2023/01/10 07:19:18;;;;;;;50.22;10.85;;;8.90;99.90;;;;;;5053063;28;20016;-65
2023/01/10 07:21:44;;;;;;;38.25;10.48;;;8.90;99.90;;;;;;5052877;28;20028;-65
2023/01/10 07:24:10;;;;;;;43.00;9.90;;;8.90;99.90;;;;;;5052886;28;20025;-65
2023/01/10 07:26:36;;;;;;;42.20;10.15;;;8.90;99.90;;;;;;5052954;28;20029;-65
2023/01/10 07:29:02;;;;;;;38.95;9.75;;;9.00;99.90;;;;;;5052687;28;20131;-65
2023/01/10 07:31:28;;;;;;;42.92;9.45;;;9.00;99.90;;;;;;5052706;28;20029;-65
2023/01/10 07:33:53;;;;;;;39.00;8.90;;;9.10;99.90;;;;;;5052642;28;20025;-65
2023/01/10 07:36:20;;;;;;;46.40;9.88;;;9.10;99.90;;;;;;5052872;28;20087;-65
2023/01/10 07:38:45;;;;;;;41.90;9.48;;;9.10;99.90;;;;;;5052611;28;20112;-65
2023/01/10 07:41:11;;;;;;;33.67;8.75;;;9.20;99.90;;;;;;5052303;28;20104;-64
2023/01/10 07:43:37;;;;;;;33.83;8.88;;;9.10;99.90;;;;;;5052636;28;20025;-65
2023/01/10 07:46:07;;;;;;;37.70;8.52;;;9.20;99.90;;;;;;5052585;28;20029;-65
2023/01/10 07:48:32;;;;;;;41.90;8.93;;;9.20;99.90;;;;;;5052994;28;20032;-65
2023/01/10 07:51:00;;;;;;;38.10;8.80;;;9.20;99.90;;;;;;5051271;28;20087;-65
2023/01/10 07:53:27;;;;;;;38.33;9.95;;;9.20;99.90;;;;;;5052376;28;20036;-65
2023/01/10 07:55:53;;;;;;;39.15;9.40;;;9.30;99.90;;;;;;5052020;28;20031;-65
2023/01/10 07:58:19;;;;;;;36.25;8.68;;;9.30;99.90;;;;;;5051105;28;20405;-65
2023/01/10 08:00:45;;;;;;;42.88;11.82;;;9.30;99.90;;;;;;5052406;28;20025;-64
2023/01/10 08:03:11;;;;;;;39.22;11.40;;;9.30;99.90;;;;;;5052652;28;20108;-65
2023/01/10 08:05:37;;;;;;;43.67;12.25;;;9.30;99.90;;;;;;5052241;28;20033;-65
2023/01/10 08:08:11;;;;;;;52.88;17.90;;;9.40;99.90;;;;;;5052041;28;20413;-64
2023/01/10 08:10:38;;;;;;;45.47;14.65;;;9.40;99.90;;;;;;5051898;28;20037;-65
2023/01/10 08:13:05;;;;;;;46.05;12.73;;;9.40;99.90;;;;;;5052009;28;20048;-65
2023/01/10 08:15:31;;;;;;;39.58;10.38;;;9.50;99.90;;;;;;5052178;28;20025;-65
2023/01/10 08:18:00;;;;;;;44.15;11.45;;;9.50;99.90;;;;;;5052505;28;20385;-64
2023/01/10 08:20:26;;;;;;;47.03;10.82;;;9.50;99.90;;;;;;5052059;28;20029;-65
2023/01/10 08:22:52;;;;;;;47.80;10.30;;;9.60;99.90;;;;;;5051518;28;20028;-65
2023/01/10 08:25:17;;;;;;;37.80;10.20;;;9.60;99.90;;;;;;5051805;28;20033;-65
2023/01/10 08:27:43;;;;;;;40.05;9.68;;;9.60;99.90;;;;;;5051872;28;20124;-65
2023/01/10 08:30:10;;;;;;;38.45;9.88;;;9.60;99.90;;;;;;5051958;28;20497;-66
2023/01/10 08:32:35;;;;;;;39.35;9.35;;;9.60;99.90;;;;;;5051520;28;20427;-65
2023/01/10 08:35:01;;;;;;;34.67;8.85;;;9.70;99.90;;;;;;5050787;28;20017;-66
2023/01/10 08:37:27;;;;;;;36.63;8.68;;;9.70;99.90;;;;;;5051944;28;20432;-65
2023/01/10 08:39:53;;;;;;;39.05;8.70;;;9.80;99.90;;;;;;5051531;28;20390;-65
2023/01/10 08:42:18;;;;;;;32.78;7.82;;;9.80;99.90;;;;;;5050954;28;20040;-65
2023/01/10 08:44:44;;;;;;;31.08;8.38;;;9.80;99.90;;;;;;5051729;28;20112;-65
2023/01/10 08:47:10;;;;;;;35.15;8.20;;;9.80;99.90;;;;;;5051843;28;20116;-65
2023/01/10 08:49:35;;;;;;;30.25;7.82;;;10.00;99.90;;;;;;5051876;28;20075;-65
2023/01/10 08:52:01;;;;;;;28.70;7.85;;;10.40;99.90;;;;;;5051573;28;20032;-66
2023/01/10 08:54:27;;;;;;;34.55;7.72;;;10.80;99.90;;;;;;5051872;28;20025;-65
2023/01/10 08:56:53;;;;;;;26.92;7.50;;;10.90;99.90;;;;;;5051691;28;20025;-65
2023/01/10 08:59:19;;;;;;;31.08;7.95;;;11.00;99.90;;;;;;5051686;28;20037;-65
2023/01/10 09:01:44;;;;;;;28.42;6.90;;;11.90;99.90;;;;;;5052032;28;20119;-65
2023/01/10 09:04:10;;;;;;;23.77;6.70;;;12.00;99.90;;;;;;5051533;28;20458;-66
2023/01/10 09:06:36;;;;;;;24.88;5.95;;;11.50;99.90;;;;;;5051515;28;20025;-66
2023/01/10 09:09:03;;;;;;;25.38;6.85;;;11.40;99.90;;;;;;5051209;28;20039;-65
2023/01/10 09:11:29;;;;;;;23.40;6.53;;;11.10;99.90;;;;;;5051633;28;20032;-65
2023/01/10 09:13:54;;;;;;;27.95;7.45;;;10.80;99.90;;;;;;5051500;28;20021;-65
2023/01/10 09:16:20;;;;;;;25.77;6.60;;;11.00;99.90;;;;;;5051550;28;20504;-65
2023/01/10 09:18:46;;;;;;;23.67;6.57;;;11.20;99.90;;;;;;5051854;28;20493;-65
2023/01/10 09:21:12;;;;;;;22.48;6.78;;;11.60;99.90;;;;;;5051360;28;20033;-65
2023/01/10 09:23:39;;;;;;;37.03;8.63;;;11.80;99.90;;;;;;5051198;28;20025;-65
2023/01/10 09:26:05;;;;;;;33.83;7.53;;;11.40;99.90;;;;;;5051906;28;20048;-65
2023/01/10 09:28:30;;;;;;;33.95;8.73;;;11.20;99.90;;;;;;5051131;28;20049;-65
2023/01/10 09:30:56;;;;;;;33.95;9.15;;;11.20;99.90;;;;;;5051417;28;20112;-65
2023/01/10 09:33:22;;;;;;;29.10;7.65;;;11.30;99.90;;;;;;5050770;28;20032;-65
2023/01/10 09:35:48;;;;;;;41.58;9.05;;;11.40;99.90;;;;;;5052875;28;20386;-65
2023/01/10 09:38:16;;;;;;;34.78;10.48;;;11.40;99.90;;;;;;5054816;28;20098;-65
2023/01/10 09:40:53;;;;;;;39.38;10.13;;;11.30;99.90;;;;;;5054881;28;20060;-65
2023/01/10 09:43:22;;;;;;;35.65;9.38;;;11.30;99.90;;;;;;5054866;28;20033;-65
2023/01/10 09:46:24;;;;;;;40.38;10.18;;;11.40;99.90;;;;;;5055192;28;20539;-65
2023/01/10 09:49:18;;;;;;;37.53;9.63;;;11.40;99.90;;;;;;5055230;28;20048;-65
2023/01/10 09:51:47;;;;;;;39.47;9.80;;;11.40;99.90;;;;;;5054338;28;20025;-65
2023/01/10 09:54:24;;;;;;;35.08;9.18;;;11.50;99.90;;;;;;5054652;28;20117;-65
2023/01/10 09:56:51;;;;;;;43.33;9.88;;;11.70;99.90;;;;;;5054694;28;20025;-65
2023/01/10 09:59:40;;;;;;;36.55;9.30;;;11.70;99.90;;;;;;5054678;28;20484;-65
2023/01/10 10:02:22;;;;;;;41.28;9.40;;;11.80;99.90;;;;;;5054661;28;20056;-65
2023/01/10 10:05:10;;;;;;;35.63;8.95;;;11.90;99.90;;;;;;5054567;28;20040;-65
2023/01/10 10:07:36;;;;;;;37.90;9.20;;;11.80;99.90;;;;;;5054580;28;20021;-65
2023/01/10 10:10:04;;;;;;;36.22;9.05;;;11.80;99.90;;;;;;5054534;28;20029;-65
2023/01/10 10:12:38;;;;;;;33.03;7.82;;;11.90;99.90;;;;;;5054301;28;20068;-65
2023/01/10 10:15:10;;;;;;;38.42;8.80;;;11.90;99.90;;;;;;5054312;28;20487;-65
2023/01/10 10:17:41;;;;;;;31.58;7.60;;;12.10;99.90;;;;;;5054743;28;20081;-65
2023/01/10 10:20:30;;;;;;;29.73;8.07;;;12.20;99.90;;;;;;5053888;28;20432;-65
2023/01/10 10:23:03;;;;;;;26.38;6.60;;;12.60;99.90;;;;;;5054311;28;20074;-65
2023/01/10 10:25:50;;;;;;;31.50;7.78;;;12.80;99.90;;;;;;5054275;28;20033;-65
2023/01/10 10:28:49;;;;;;;21.05;6.63;;;13.30;99.90;;;;;;5054326;28;20053;-65
2023/01/10 10:31:33;;;;;;;25.48;6.05;;;13.10;99.90;;;;;;5054195;28;20025;-65
2023/01/10 10:34:07;;;;;;;25.67;6.38;;;13.00;99.90;;;;;;5053337;28;20678;-65
2023/01/10 10:36:59;;;;;;;25.65;6.43;;;12.90;99.90;;;;;;5053915;28;20029;-66
2023/01/10 10:39:50;;;;;;;20.25;5.95;;;13.20;99.90;;;;;;5053966;28;20498;-66
2023/01/10 10:42:17;;;;;;;24.63;6.38;;;13.50;99.90;;;;;;5047676;28;20061;-64
2023/01/10 10:44:54;;;;;;;21.63;6.10;;;14.00;99.90;;;;;;5053908;28;20598;-65
2023/01/10 10:47:22;;;;;;;22.40;5.63;;;14.10;99.90;;;;;;5053481;28;20466;-63
2023/01/10 10:50:05;;;;;;;19.42;5.70;;;14.10;99.90;;;;;;5053183;28;20032;-64
2023/01/10 10:52:34;;;;;;;21.27;5.18;;;14.00;99.90;;;;;;5053465;28;20060;-63
2023/01/10 10:55:03;;;;;;;22.17;5.35;;;14.20;99.90;;;;;;5053536;28;20021;-64
2023/01/10 10:57:32;;;;;;;24.88;5.22;;;14.20;99.90;;;;;;5053498;28;20405;-65
2023/01/10 11:00:00;;;;;;;19.70;4.90;;;13.90;99.90;;;;;;5053515;28;20660;-64
2023/01/10 11:02:27;;;;;;;23.45;5.93;;;14.00;99.90;;;;;;5053271;28;20056;-64
2023/01/10 11:05:00;;;;;;;23.40;5.82;;;14.40;99.90;;;;;;5053440;28;20075;-64
2023/01/10 11:07:33;;;;;;;24.55;6.03;;;14.90;99.90;;;;;;5052759;28;20033;-64
2023/01/10 11:12:32;;;;;;;19.75;5.35;;;15.50;99.90;;;;;;5053075;28;20545;-65
2023/01/10 11:14:58;;;;;;;22.45;5.50;;;16.00;99.90;;;;;;5053109;28;20040;-65
2023/01/10 11:17:25;;;;;;;26.63;5.78;;;15.40;99.90;;;;;;5053043;28;20053;-65
2023/01/10 11:19:54;;;;;;;21.38;5.88;;;15.00;99.90;;;;;;5052577;28;20033;-65
2023/01/10 11:22:20;;;;;;;24.10;5.95;;;14.90;99.90;;;;;;5052968;28;20086;-65
2023/01/10 11:25:16;;;;;;;23.35;6.38;;;14.80;99.90;;;;;;5052969;28;20033;-65
2023/01/10 11:28:00;;;;;;;29.15;6.65;;;14.90;99.90;;;;;;5051512;28;20076;-65
2023/01/10 11:30:35;;;;;;;28.42;7.07;;;15.00;99.90;;;;;;5052130;28;20037;-65
2023/01/10 11:33:04;;;;;;;25.58;6.93;;;14.90;99.90;;;;;;5051959;28;20097;-65
2023/01/10 11:35:37;;;;;;;35.65;7.00;;;14.80;99.90;;;;;;5052783;28;20029;-65
2023/01/10 11:38:23;;;;;;;31.50;7.05;;;15.00;99.90;;;;;;5052639;28;20478;-65
2023/01/10 11:41:01;;;;;;;25.50;6.78;;;15.20;99.90;;;;;;5052659;28;20109;-65
2023/01/10 11:43:33;;;;;;;30.35;7.47;;;14.80;99.90;;;;;;5052804;28;20082;-65
2023/01/10 11:46:21;;;;;;;27.70;6.88;;;14.60;99.90;;;;;;5052524;28;20021;-65
2023/01/10 11:49:18;;;;;;;30.42;7.00;;;14.60;99.90;;;;;;5052187;28;20485;-64
2023/01/10 11:51:47;;;;;;;26.27;7.40;;;14.70;99.90;;;;;;5052307;28;20052;-64
2023/01/10 11:54:24;;;;;;;31.45;10.02;;;14.90;99.90;;;;;;5052247;28;20489;-65
2023/01/10 11:56:57;;;;;;;27.80;7.07;;;15.10;99.90;;;;;;5052729;28;20108;-65
2023/01/10 11:59:24;;;;;;;24.20;6.57;;;15.10;99.90;;;;;;5051624;28;20033;-65
2023/01/10 12:02:17;;;;;;;26.75;7.78;;;15.40;99.90;;;;;;5051906;28;20029;-64
2023/01/10 12:04:46;;;;;;;29.40;6.65;;;15.80;99.90;;;;;;5052646;28;20039;-65
2023/01/10 12:07:12;;;;;;;26.70;6.60;;;15.90;99.90;;;;;;5052309;28;20583;-65
2023/01/10 12:10:01;;;;;;;24.13;6.30;;;15.90;99.90;;;;;;5052273;28;20029;-65
2023/01/10 12:12:31;;;;;;;22.27;6.20;;;16.00;99.90;;;;;;5052054;28;20083;-65
2023/01/10 12:14:59;;;;;;;21.23;5.47;;;16.10;99.90;;;;;;5052512;28;20021;-65
2023/01/10 12:17:36;;;;;;;20.42;6.30;;;15.80;99.90;;;;;;5051945;28;20447;-65
2023/01/10 12:20:05;;;;;;;24.45;5.78;;;16.20;99.90;;;;;;5052114;28;20021;-65
2023/01/10 12:22:39;;;;;;;20.33;5.30;;;16.10;99.90;;;;;;5051786;28;20397;-64
2023/01/10 12:25:35;;;;;;;23.75;5.35;;;16.10;99.90;;;;;;5052435;28;20108;-64
2023/01/10 12:28:01;;;;;;;24.73;5.28;;;16.00;99.90;;;;;;5051752;28;20120;-65
2023/01/10 12:30:42;;;;;;;19.17;5.00;;;16.10;99.90;;;;;;5051613;28;20129;-65
2023/01/10 12:33:18;;;;;;;21.30;5.60;;;16.50;99.90;;;;;;5051147;28;20057;-64
2023/01/10 12:36:16;;;;;;;18.60;5.18;;;16.50;99.90;;;;;;5052278;28;20031;-65
2023/01/10 12:39:04;;;;;;;19.73;4.70;;;16.80;99.90;;;;;;5028496;28;20095;-66
2023/01/10 12:44:36;;;;;;;19.92;5.53;;;16.80;99.90;;;;;;5029383;28;20611;-65
2023/01/10 12:47:27;;;;;;;14.68;4.43;;;16.40;99.90;;;;;;5029796;28;20470;-66
2023/01/10 12:50:06;;;;;;;14.80;4.07;;;16.20;99.90;;;;;;5029718;28;20109;-65
2023/01/10 12:52:44;;;;;;;18.73;4.47;;;16.00;99.90;;;;;;5030069;28;20099;-68
2023/01/10 12:55:39;;;;;;;13.95;3.75;;;16.30;99.90;;;;;;5029566;28;20564;-65
2023/01/10 12:58:10;;;;;;;14.10;3.88;;;16.40;99.90;;;;;;5024463;28;20445;-66
2023/01/10 13:00:45;;;;;;;13.13;3.80;;;16.60;99.90;;;;;;5012714;28;20029;-65
2023/01/10 13:03:16;;;;;;;12.68;3.45;;;16.40;99.90;;;;;;5029603;28;20540;-66
2023/01/10 13:05:47;;;;;;;12.82;3.70;;;16.50;99.90;;;;;;5029670;28;20091;-66
2023/01/10 13:08:16;;;;;;;16.48;4.03;;;16.50;99.90;;;;;;5029474;28;20041;-66
2023/01/10 13:10:46;;;;;;;15.60;3.55;;;16.30;99.90;;;;;;5032400;28;20609;-65
2023/01/10 13:13:25;;;;;;;13.25;3.85;;;16.10;99.90;;;;;;5034591;28;20033;-65
2023/01/10 13:15:56;;;;;;;15.80;4.03;;;16.20;99.90;;;;;;5055530;28;20021;-65
2023/01/10 13:18:26;;;;;;;12.63;3.58;;;16.10;99.90;;;;;;5055419;28;20540;-66